sensor_id;sensor_type;location;lat;lon;timestamp;P1;durP1;ratioP1;P2;durP2;ratioP2
84883;SDS011;75145;49.188;8.122;2024-03-25T00:01:20;9.90;;;3.40;;
84883;SDS011;75145;49.188;8.122;2024-03-25T00:03:46;5.97;;;2.90;;
84883;SDS011;75145;49.188;8.122;2024-03-25T00:06:11;7.43;;;3.80;;
84883;SDS011;75145;49.188;8.122;2024-03-25T00:08:36;5.35;;;3.10;;
84883;SDS011;75145;49.188;8.122;2024-03-25T00:11:02;7.70;;;3.00;;
84883;SDS011;75145;49.188;8.122;2024-03-25T00:13:27;6.45;;;3.15;;
84883;SDS011;75145;49.188;8.122;2024-03-25T00:15:52;8.17;;;3.07;;
84883;SDS011;75145;49.188;8.122;2024-03-25T00:18:18;9.93;;;3.40;;
84883;SDS011;75145;49.188;8.122;2024-03-25T00:20:43;7.57;;;3.22;;
84883;SDS011;75145;49.188;8.122;2024-03-25T00:23:09;7.95;;;3.03;;
84883;SDS011;75145;49.188;8.122;2024-03-25T00:25:34;6.88;;;3.10;;
84883;SDS011;75145;49.188;8.122;2024-03-25T00:29:07;7.03;;;3.90;;
84883;SDS011;75145;49.188;8.122;2024-03-25T00:31:33;6.13;;;3.47;;
84883;SDS011;75145;49.188;8.122;2024-03-25T00:33:58;6.13;;;3.23;;
84883;SDS011;75145;49.188;8.122;2024-03-25T00:36:23;8.53;;;3.47;;
84883;SDS011;75145;49.188;8.122;2024-03-25T00:38:49;6.28;;;3.10;;
84883;SDS011;75145;49.188;8.122;2024-03-25T00:41:14;7.40;;;3.40;;
84883;SDS011;75145;49.188;8.122;2024-03-25T00:43:39;7.10;;;3.27;;
84883;SDS011;75145;49.188;8.122;2024-03-25T00:46:05;9.77;;;3.40;;
84883;SDS011;75145;49.188;8.122;2024-03-25T00:48:30;9.53;;;3.37;;
84883;SDS011;75145;49.188;8.122;2024-03-25T00:50:55;7.10;;;3.33;;
84883;SDS011;75145;49.188;8.122;2024-03-25T00:53:20;6.70;;;3.30;;
84883;SDS011;75145;49.188;8.122;2024-03-25T00:55:46;8.43;;;3.30;;
84883;SDS011;75145;49.188;8.122;2024-03-25T00:58:11;6.13;;;3.30;;
84883;SDS011;75145;49.188;8.122;2024-03-25T01:00:36;8.30;;;3.73;;
84883;SDS011;75145;49.188;8.122;2024-03-25T01:03:02;9.07;;;3.80;;
84883;SDS011;75145;49.188;8.122;2024-03-25T01:05:27;6.85;;;3.13;;
84883;SDS011;75145;49.188;8.122;2024-03-25T01:07:52;6.82;;;3.58;;
84883;SDS011;75145;49.188;8.122;2024-03-25T01:10:18;6.13;;;3.23;;
84883;SDS011;75145;49.188;8.122;2024-03-25T01:12:43;7.57;;;3.80;;
84883;SDS011;75145;49.188;8.122;2024-03-25T01:15:08;4.07;;;2.73;;
84883;SDS011;75145;49.188;8.122;2024-03-25T01:17:37;5.90;;;3.20;;
84883;SDS011;75145;49.188;8.122;2024-03-25T01:20:02;8.82;;;3.55;;
84883;SDS011;75145;49.188;8.122;2024-03-25T01:22:29;7.68;;;3.50;;
84883;SDS011;75145;49.188;8.122;2024-03-25T01:24:55;8.63;;;3.30;;
84883;SDS011;75145;49.188;8.122;2024-03-25T01:27:21;6.45;;;3.67;;
84883;SDS011;75145;49.188;8.122;2024-03-25T01:29:46;5.93;;;3.47;;
84883;SDS011;75145;49.188;8.122;2024-03-25T01:32:12;4.93;;;2.90;;
84883;SDS011;75145;49.188;8.122;2024-03-25T01:34:37;13.10;;;4.27;;
84883;SDS011;75145;49.188;8.122;2024-03-25T01:37:02;9.30;;;3.83;;
84883;SDS011;75145;49.188;8.122;2024-03-25T01:39:28;7.38;;;3.38;;
84883;SDS011;75145;49.188;8.122;2024-03-25T01:41:54;10.60;;;4.43;;
84883;SDS011;75145;49.188;8.122;2024-03-25T01:44:19;6.00;;;3.33;;
84883;SDS011;75145;49.188;8.122;2024-03-25T01:46:44;7.00;;;3.73;;
84883;SDS011;75145;49.188;8.122;2024-03-25T01:49:10;6.72;;;3.60;;
84883;SDS011;75145;49.188;8.122;2024-03-25T01:51:36;5.40;;;3.50;;
84883;SDS011;75145;49.188;8.122;2024-03-25T01:54:03;12.45;;;4.18;;
84883;SDS011;75145;49.188;8.122;2024-03-25T01:56:30;10.00;;;4.18;;
84883;SDS011;75145;49.188;8.122;2024-03-25T01:58:58;6.65;;;3.78;;
84883;SDS011;75145;49.188;8.122;2024-03-25T02:01:24;7.57;;;3.53;;
84883;SDS011;75145;49.188;8.122;2024-03-25T02:03:49;6.22;;;3.30;;
84883;SDS011;75145;49.188;8.122;2024-03-25T02:06:15;6.30;;;3.60;;
84883;SDS011;75145;49.188;8.122;2024-03-25T02:08:42;8.20;;;3.45;;
84883;SDS011;75145;49.188;8.122;2024-03-25T02:11:09;6.18;;;3.60;;
84883;SDS011;75145;49.188;8.122;2024-03-25T02:13:35;8.63;;;3.40;;
84883;SDS011;75145;49.188;8.122;2024-03-25T02:16:02;8.45;;;3.72;;
84883;SDS011;75145;49.188;8.122;2024-03-25T02:18:28;9.35;;;3.58;;
84883;SDS011;75145;49.188;8.122;2024-03-25T02:20:55;5.90;;;2.97;;
84883;SDS011;75145;49.188;8.122;2024-03-25T02:23:21;5.18;;;3.33;;
84883;SDS011;75145;49.188;8.122;2024-03-25T02:25:50;7.63;;;3.67;;
84883;SDS011;75145;49.188;8.122;2024-03-25T02:28:16;6.50;;;3.65;;
84883;SDS011;75145;49.188;8.122;2024-03-25T02:30:41;6.38;;;3.72;;
84883;SDS011;75145;49.188;8.122;2024-03-25T02:33:07;8.88;;;3.55;;
84883;SDS011;75145;49.188;8.122;2024-03-25T02:35:32;7.33;;;4.10;;
84883;SDS011;75145;49.188;8.122;2024-03-25T02:37:58;5.55;;;3.55;;
84883;SDS011;75145;49.188;8.122;2024-03-25T02:40:23;11.27;;;4.30;;
84883;SDS011;75145;49.188;8.122;2024-03-25T02:42:49;6.50;;;3.92;;
84883;SDS011;75145;49.188;8.122;2024-03-25T02:45:15;7.30;;;3.53;;
84883;SDS011;75145;49.188;8.122;2024-03-25T02:47:40;9.88;;;4.22;;
84883;SDS011;75145;49.188;8.122;2024-03-25T02:50:06;7.25;;;4.15;;
84883;SDS011;75145;49.188;8.122;2024-03-25T02:52:31;10.82;;;3.88;;
84883;SDS011;75145;49.188;8.122;2024-03-25T02:54:57;8.73;;;3.27;;
84883;SDS011;75145;49.188;8.122;2024-03-25T02:57:22;7.63;;;3.17;;
84883;SDS011;75145;49.188;8.122;2024-03-25T02:59:48;7.90;;;3.65;;
84883;SDS011;75145;49.188;8.122;2024-03-25T03:02:13;6.95;;;3.35;;
84883;SDS011;75145;49.188;8.122;2024-03-25T03:04:38;11.38;;;3.67;;
84883;SDS011;75145;49.188;8.122;2024-03-25T03:07:04;7.77;;;3.50;;
84883;SDS011;75145;49.188;8.122;2024-03-25T03:09:29;11.15;;;4.20;;
84883;SDS011;75145;49.188;8.122;2024-03-25T03:11:55;10.85;;;4.10;;
84883;SDS011;75145;49.188;8.122;2024-03-25T03:14:20;7.70;;;4.00;;
84883;SDS011;75145;49.188;8.122;2024-03-25T03:16:45;9.32;;;3.88;;
84883;SDS011;75145;49.188;8.122;2024-03-25T03:19:11;6.72;;;4.03;;
84883;SDS011;75145;49.188;8.122;2024-03-25T03:21:36;7.00;;;3.93;;
84883;SDS011;75145;49.188;8.122;2024-03-25T03:24:02;8.53;;;3.40;;
84883;SDS011;75145;49.188;8.122;2024-03-25T03:26:28;7.57;;;3.22;;
84883;SDS011;75145;49.188;8.122;2024-03-25T03:28:53;10.35;;;3.97;;
84883;SDS011;75145;49.188;8.122;2024-03-25T03:31:19;8.75;;;3.95;;
84883;SDS011;75145;49.188;8.122;2024-03-25T03:33:46;8.88;;;3.67;;
84883;SDS011;75145;49.188;8.122;2024-03-25T03:36:12;9.27;;;4.00;;
84883;SDS011;75145;49.188;8.122;2024-03-25T03:38:37;7.63;;;4.17;;
84883;SDS011;75145;49.188;8.122;2024-03-25T03:41:02;9.23;;;3.80;;
84883;SDS011;75145;49.188;8.122;2024-03-25T03:43:28;8.77;;;4.63;;
84883;SDS011;75145;49.188;8.122;2024-03-25T03:45:54;7.53;;;3.85;;
84883;SDS011;75145;49.188;8.122;2024-03-25T03:48:19;12.10;;;4.20;;
84883;SDS011;75145;49.188;8.122;2024-03-25T03:50:44;6.65;;;3.80;;
84883;SDS011;75145;49.188;8.122;2024-03-25T03:53:10;10.35;;;4.15;;
84883;SDS011;75145;49.188;8.122;2024-03-25T03:55:36;7.63;;;3.90;;
84883;SDS011;75145;49.188;8.122;2024-03-25T03:58:01;6.85;;;4.28;;
84883;SDS011;75145;49.188;8.122;2024-03-25T04:00:27;6.70;;;3.72;;
84883;SDS011;75145;49.188;8.122;2024-03-25T04:02:53;6.90;;;3.60;;
84883;SDS011;75145;49.188;8.122;2024-03-25T04:05:18;5.93;;;3.75;;
84883;SDS011;75145;49.188;8.122;2024-03-25T04:07:44;11.23;;;4.25;;
84883;SDS011;75145;49.188;8.122;2024-03-25T04:10:09;7.32;;;4.03;;
84883;SDS011;75145;49.188;8.122;2024-03-25T04:12:35;6.72;;;3.75;;
84883;SDS011;75145;49.188;8.122;2024-03-25T04:15:01;8.15;;;3.45;;
84883;SDS011;75145;49.188;8.122;2024-03-25T04:17:28;11.75;;;5.07;;
84883;SDS011;75145;49.188;8.122;2024-03-25T04:19:53;11.50;;;4.13;;
84883;SDS011;75145;49.188;8.122;2024-03-25T04:22:18;11.50;;;3.88;;
84883;SDS011;75145;49.188;8.122;2024-03-25T04:24:44;8.32;;;3.92;;
84883;SDS011;75145;49.188;8.122;2024-03-25T04:27:09;12.63;;;4.38;;
84883;SDS011;75145;49.188;8.122;2024-03-25T04:29:35;7.18;;;3.75;;
84883;SDS011;75145;49.188;8.122;2024-03-25T04:32:00;9.63;;;3.70;;
84883;SDS011;75145;49.188;8.122;2024-03-25T04:34:26;8.63;;;5.00;;
84883;SDS011;75145;49.188;8.122;2024-03-25T04:36:52;6.88;;;3.55;;
84883;SDS011;75145;49.188;8.122;2024-03-25T04:39:18;5.38;;;3.75;;
84883;SDS011;75145;49.188;8.122;2024-03-25T04:41:44;10.23;;;4.57;;
84883;SDS011;75145;49.188;8.122;2024-03-25T04:44:09;7.17;;;3.50;;
84883;SDS011;75145;49.188;8.122;2024-03-25T04:46:34;7.82;;;4.72;;
84883;SDS011;75145;49.188;8.122;2024-03-25T04:49:00;6.63;;;3.63;;
84883;SDS011;75145;49.188;8.122;2024-03-25T04:51:25;8.60;;;4.13;;
84883;SDS011;75145;49.188;8.122;2024-03-25T04:53:51;11.25;;;4.43;;
84883;SDS011;75145;49.188;8.122;2024-03-25T04:56:18;7.35;;;4.35;;
84883;SDS011;75145;49.188;8.122;2024-03-25T04:58:43;9.10;;;4.38;;
84883;SDS011;75145;49.188;8.122;2024-03-25T05:01:08;11.30;;;4.47;;
84883;SDS011;75145;49.188;8.122;2024-03-25T05:03:34;8.37;;;3.87;;
84883;SDS011;75145;49.188;8.122;2024-03-25T05:05:59;9.53;;;4.03;;
84883;SDS011;75145;49.188;8.122;2024-03-25T05:08:24;9.25;;;4.55;;
84883;SDS011;75145;49.188;8.122;2024-03-25T05:10:50;8.70;;;4.50;;
84883;SDS011;75145;49.188;8.122;2024-03-25T05:13:15;12.52;;;4.75;;
84883;SDS011;75145;49.188;8.122;2024-03-25T05:15:40;7.57;;;4.53;;
84883;SDS011;75145;49.188;8.122;2024-03-25T05:18:06;8.23;;;4.50;;
84883;SDS011;75145;49.188;8.122;2024-03-25T05:20:31;7.32;;;4.10;;
84883;SDS011;75145;49.188;8.122;2024-03-25T05:22:56;12.47;;;4.20;;
84883;SDS011;75145;49.188;8.122;2024-03-25T05:25:22;11.30;;;3.83;;
84883;SDS011;75145;49.188;8.122;2024-03-25T05:27:53;9.95;;;4.22;;
84883;SDS011;75145;49.188;8.122;2024-03-25T05:30:19;7.60;;;4.35;;
84883;SDS011;75145;49.188;8.122;2024-03-25T05:32:44;7.20;;;3.97;;
84883;SDS011;75145;49.188;8.122;2024-03-25T05:35:09;11.07;;;4.47;;
84883;SDS011;75145;49.188;8.122;2024-03-25T05:37:35;9.25;;;4.18;;
84883;SDS011;75145;49.188;8.122;2024-03-25T05:40:01;7.28;;;4.00;;
84883;SDS011;75145;49.188;8.122;2024-03-25T05:42:26;9.85;;;4.25;;
84883;SDS011;75145;49.188;8.122;2024-03-25T05:44:51;9.33;;;4.07;;
84883;SDS011;75145;49.188;8.122;2024-03-25T05:47:17;8.90;;;4.60;;
84883;SDS011;75145;49.188;8.122;2024-03-25T05:49:42;9.60;;;4.73;;
84883;SDS011;75145;49.188;8.122;2024-03-25T05:52:07;7.57;;;3.72;;
84883;SDS011;75145;49.188;8.122;2024-03-25T05:54:33;8.97;;;4.10;;
84883;SDS011;75145;49.188;8.122;2024-03-25T05:56:58;6.40;;;4.00;;
84883;SDS011;75145;49.188;8.122;2024-03-25T05:59:23;9.27;;;4.33;;
84883;SDS011;75145;49.188;8.122;2024-03-25T06:01:49;7.00;;;3.67;;
84883;SDS011;75145;49.188;8.122;2024-03-25T06:04:14;10.63;;;4.20;;
84883;SDS011;75145;49.188;8.122;2024-03-25T06:06:39;7.40;;;4.10;;
84883;SDS011;75145;49.188;8.122;2024-03-25T06:09:04;8.07;;;3.63;;
84883;SDS011;75145;49.188;8.122;2024-03-25T06:11:30;9.30;;;4.50;;
84883;SDS011;75145;49.188;8.122;2024-03-25T06:13:56;7.13;;;4.03;;
84883;SDS011;75145;49.188;8.122;2024-03-25T06:16:21;7.32;;;4.18;;
84883;SDS011;75145;49.188;8.122;2024-03-25T06:18:46;5.50;;;3.30;;
84883;SDS011;75145;49.188;8.122;2024-03-25T06:21:12;8.13;;;3.97;;
84883;SDS011;75145;49.188;8.122;2024-03-25T06:23:38;11.13;;;4.18;;
84883;SDS011;75145;49.188;8.122;2024-03-25T06:26:03;6.75;;;3.85;;
84883;SDS011;75145;49.188;8.122;2024-03-25T06:28:29;7.43;;;3.70;;
84883;SDS011;75145;49.188;8.122;2024-03-25T06:30:57;7.93;;;4.03;;
84883;SDS011;75145;49.188;8.122;2024-03-25T06:33:41;7.68;;;3.83;;
84883;SDS011;75145;49.188;8.122;2024-03-25T06:36:25;36.33;;;5.05;;
84883;SDS011;75145;49.188;8.122;2024-03-25T06:38:50;5.20;;;3.23;;
84883;SDS011;75145;49.188;8.122;2024-03-25T06:41:18;6.38;;;3.72;;
84883;SDS011;75145;49.188;8.122;2024-03-25T06:43:46;5.03;;;3.42;;
84883;SDS011;75145;49.188;8.122;2024-03-25T06:46:11;6.07;;;3.70;;
84883;SDS011;75145;49.188;8.122;2024-03-25T06:48:37;7.10;;;4.38;;
84883;SDS011;75145;49.188;8.122;2024-03-25T06:51:02;6.47;;;3.47;;
84883;SDS011;75145;49.188;8.122;2024-03-25T06:53:28;8.23;;;4.28;;
84883;SDS011;75145;49.188;8.122;2024-03-25T06:58:25;8.75;;;4.45;;
84883;SDS011;75145;49.188;8.122;2024-03-25T07:00:51;9.20;;;4.75;;
84883;SDS011;75145;49.188;8.122;2024-03-25T07:03:18;10.40;;;4.85;;
84883;SDS011;75145;49.188;8.122;2024-03-25T07:05:45;11.10;;;4.72;;
84883;SDS011;75145;49.188;8.122;2024-03-25T07:08:11;12.50;;;4.45;;
84883;SDS011;75145;49.188;8.122;2024-03-25T07:10:37;10.43;;;4.45;;
84883;SDS011;75145;49.188;8.122;2024-03-25T07:13:03;7.85;;;3.40;;
84883;SDS011;75145;49.188;8.122;2024-03-25T07:15:28;7.32;;;3.38;;
84883;SDS011;75145;49.188;8.122;2024-03-25T07:17:54;7.00;;;3.40;;
84883;SDS011;75145;49.188;8.122;2024-03-25T07:20:19;5.00;;;3.60;;
84883;SDS011;75145;49.188;8.122;2024-03-25T07:22:46;7.65;;;3.20;;
84883;SDS011;75145;49.188;8.122;2024-03-25T07:25:12;7.10;;;3.55;;
84883;SDS011;75145;49.188;8.122;2024-03-25T07:27:38;5.55;;;3.70;;
84883;SDS011;75145;49.188;8.122;2024-03-25T07:30:03;7.80;;;3.10;;
84883;SDS011;75145;49.188;8.122;2024-03-25T07:32:31;6.03;;;3.75;;
84883;SDS011;75145;49.188;8.122;2024-03-25T07:34:57;10.10;;;3.85;;
84883;SDS011;75145;49.188;8.122;2024-03-25T07:37:22;8.90;;;3.43;;
84883;SDS011;75145;49.188;8.122;2024-03-25T07:39:47;8.70;;;3.60;;
84883;SDS011;75145;49.188;8.122;2024-03-25T07:42:13;7.93;;;3.50;;
84883;SDS011;75145;49.188;8.122;2024-03-25T07:44:39;7.80;;;3.90;;
84883;SDS011;75145;49.188;8.122;2024-03-25T07:47:04;6.47;;;3.33;;
84883;SDS011;75145;49.188;8.122;2024-03-25T07:49:30;6.18;;;3.85;;
84883;SDS011;75145;49.188;8.122;2024-03-25T07:51:56;4.78;;;3.08;;
84883;SDS011;75145;49.188;8.122;2024-03-25T07:54:22;6.03;;;3.80;;
84883;SDS011;75145;49.188;8.122;2024-03-25T07:56:47;6.05;;;3.50;;
84883;SDS011;75145;49.188;8.122;2024-03-25T07:59:12;7.55;;;3.75;;
84883;SDS011;75145;49.188;8.122;2024-03-25T08:01:38;5.47;;;3.37;;
84883;SDS011;75145;49.188;8.122;2024-03-25T08:04:03;6.83;;;3.40;;
84883;SDS011;75145;49.188;8.122;2024-03-25T08:06:28;4.97;;;3.38;;
84883;SDS011;75145;49.188;8.122;2024-03-25T08:08:54;7.77;;;3.80;;
84883;SDS011;75145;49.188;8.122;2024-03-25T08:11:19;8.75;;;3.58;;
84883;SDS011;75145;49.188;8.122;2024-03-25T08:13:45;7.18;;;3.50;;
84883;SDS011;75145;49.188;8.122;2024-03-25T08:16:11;6.00;;;3.40;;
84883;SDS011;75145;49.188;8.122;2024-03-25T08:18:37;7.20;;;3.67;;
84883;SDS011;75145;49.188;8.122;2024-03-25T08:21:02;7.70;;;3.17;;
84883;SDS011;75145;49.188;8.122;2024-03-25T08:23:27;6.82;;;3.50;;
84883;SDS011;75145;49.188;8.122;2024-03-25T08:25:53;6.60;;;3.40;;
84883;SDS011;75145;49.188;8.122;2024-03-25T08:28:18;7.63;;;3.47;;
84883;SDS011;75145;49.188;8.122;2024-03-25T08:30:43;7.17;;;3.50;;
84883;SDS011;75145;49.188;8.122;2024-03-25T08:33:09;7.50;;;4.00;;
84883;SDS011;75145;49.188;8.122;2024-03-25T08:35:34;6.50;;;3.80;;
84883;SDS011;75145;49.188;8.122;2024-03-25T08:37:59;7.40;;;3.43;;
84883;SDS011;75145;49.188;8.122;2024-03-25T08:40:24;5.90;;;3.43;;
84883;SDS011;75145;49.188;8.122;2024-03-25T08:42:50;7.30;;;3.50;;
84883;SDS011;75145;49.188;8.122;2024-03-25T08:45:16;6.95;;;3.33;;
84883;SDS011;75145;49.188;8.122;2024-03-25T08:47:41;7.00;;;3.38;;
84883;SDS011;75145;49.188;8.122;2024-03-25T08:50:07;10.55;;;3.58;;
84883;SDS011;75145;49.188;8.122;2024-03-25T08:52:33;6.15;;;3.08;;
84883;SDS011;75145;49.188;8.122;2024-03-25T08:54:59;7.27;;;3.77;;
84883;SDS011;75145;49.188;8.122;2024-03-25T08:57:24;6.53;;;2.88;;
84883;SDS011;75145;49.188;8.122;2024-03-25T08:59:49;6.88;;;3.38;;
84883;SDS011;75145;49.188;8.122;2024-03-25T09:02:14;7.03;;;3.53;;
84883;SDS011;75145;49.188;8.122;2024-03-25T09:04:40;7.10;;;2.65;;
84883;SDS011;75145;49.188;8.122;2024-03-25T09:07:05;6.85;;;3.53;;
84883;SDS011;75145;49.188;8.122;2024-03-25T09:09:31;5.57;;;3.30;;
84883;SDS011;75145;49.188;8.122;2024-03-25T09:14:40;6.17;;;2.73;;
84883;SDS011;75145;49.188;8.122;2024-03-25T09:17:05;5.43;;;2.57;;
84883;SDS011;75145;49.188;8.122;2024-03-25T09:19:30;4.55;;;2.55;;
84883;SDS011;75145;49.188;8.122;2024-03-25T09:21:56;8.03;;;2.83;;
84883;SDS011;75145;49.188;8.122;2024-03-25T09:24:21;5.63;;;2.93;;
84883;SDS011;75145;49.188;8.122;2024-03-25T09:26:49;5.63;;;2.88;;
84883;SDS011;75145;49.188;8.122;2024-03-25T09:29:15;5.47;;;3.10;;
84883;SDS011;75145;49.188;8.122;2024-03-25T09:31:40;6.33;;;3.40;;
84883;SDS011;75145;49.188;8.122;2024-03-25T09:34:05;5.30;;;2.83;;
84883;SDS011;75145;49.188;8.122;2024-03-25T09:36:31;6.20;;;2.37;;
84883;SDS011;75145;49.188;8.122;2024-03-25T09:38:56;4.72;;;2.95;;
84883;SDS011;75145;49.188;8.122;2024-03-25T09:41:21;5.17;;;2.40;;
84883;SDS011;75145;49.188;8.122;2024-03-25T09:43:48;6.55;;;2.25;;
84883;SDS011;75145;49.188;8.122;2024-03-25T09:46:17;5.07;;;2.40;;
84883;SDS011;75145;49.188;8.122;2024-03-25T09:48:42;6.07;;;2.60;;
84883;SDS011;75145;49.188;8.122;2024-03-25T09:51:09;4.20;;;2.25;;
84883;SDS011;75145;49.188;8.122;2024-03-25T09:53:35;6.60;;;2.38;;
84883;SDS011;75145;49.188;8.122;2024-03-25T09:56:00;5.32;;;2.63;;
84883;SDS011;75145;49.188;8.122;2024-03-25T09:58:26;4.60;;;2.10;;
84883;SDS011;75145;49.188;8.122;2024-03-25T10:00:52;4.97;;;2.78;;
84883;SDS011;75145;49.188;8.122;2024-03-25T10:03:18;3.20;;;1.70;;
84883;SDS011;75145;49.188;8.122;2024-03-25T10:05:43;7.20;;;2.53;;
84883;SDS011;75145;49.188;8.122;2024-03-25T10:08:09;4.85;;;2.42;;
84883;SDS011;75145;49.188;8.122;2024-03-25T10:10:34;5.15;;;2.20;;
84883;SDS011;75145;49.188;8.122;2024-03-25T10:13:02;7.50;;;2.63;;
84883;SDS011;75145;49.188;8.122;2024-03-25T10:15:30;4.40;;;2.20;;
84883;SDS011;75145;49.188;8.122;2024-03-25T10:17:57;6.03;;;2.40;;
84883;SDS011;75145;49.188;8.122;2024-03-25T10:20:22;4.90;;;2.27;;
84883;SDS011;75145;49.188;8.122;2024-03-25T10:22:47;5.40;;;2.27;;
84883;SDS011;75145;49.188;8.122;2024-03-25T10:25:26;6.10;;;1.83;;
84883;SDS011;75145;49.188;8.122;2024-03-25T10:27:53;5.85;;;1.85;;
84883;SDS011;75145;49.188;8.122;2024-03-25T10:30:19;7.07;;;2.00;;
84883;SDS011;75145;49.188;8.122;2024-03-25T10:32:45;5.07;;;2.13;;
84883;SDS011;75145;49.188;8.122;2024-03-25T10:35:10;5.20;;;2.35;;
84883;SDS011;75145;49.188;8.122;2024-03-25T10:37:38;4.75;;;2.35;;
84883;SDS011;75145;49.188;8.122;2024-03-25T10:40:04;4.22;;;2.00;;
84883;SDS011;75145;49.188;8.122;2024-03-25T10:42:32;3.88;;;2.05;;
84883;SDS011;75145;49.188;8.122;2024-03-25T10:45:00;4.32;;;1.63;;
84883;SDS011;75145;49.188;8.122;2024-03-25T10:47:27;4.35;;;1.80;;
84883;SDS011;75145;49.188;8.122;2024-03-25T10:49:56;3.67;;;2.13;;
84883;SDS011;75145;49.188;8.122;2024-03-25T10:52:26;5.65;;;1.58;;
84883;SDS011;75145;49.188;8.122;2024-03-25T10:54:52;4.22;;;1.80;;
84883;SDS011;75145;49.188;8.122;2024-03-25T10:57:19;3.78;;;1.90;;
84883;SDS011;75145;49.188;8.122;2024-03-25T10:59:45;5.18;;;1.98;;
84883;SDS011;75145;49.188;8.122;2024-03-25T11:02:11;4.38;;;2.00;;
84883;SDS011;75145;49.188;8.122;2024-03-25T11:04:37;3.28;;;1.90;;
84883;SDS011;75145;49.188;8.122;2024-03-25T11:07:10;3.85;;;1.77;;
84883;SDS011;75145;49.188;8.122;2024-03-25T11:09:36;3.17;;;1.77;;
84883;SDS011;75145;49.188;8.122;2024-03-25T11:12:02;3.20;;;1.88;;
84883;SDS011;75145;49.188;8.122;2024-03-25T11:14:28;3.70;;;1.83;;
84883;SDS011;75145;49.188;8.122;2024-03-25T11:16:53;5.53;;;2.05;;
84883;SDS011;75145;49.188;8.122;2024-03-25T11:19:20;5.13;;;1.77;;
84883;SDS011;75145;49.188;8.122;2024-03-25T11:21:50;4.85;;;1.67;;
84883;SDS011;75145;49.188;8.122;2024-03-25T11:24:15;5.68;;;2.38;;
84883;SDS011;75145;49.188;8.122;2024-03-25T11:26:41;3.40;;;1.80;;
84883;SDS011;75145;49.188;8.122;2024-03-25T11:29:07;6.03;;;2.00;;
84883;SDS011;75145;49.188;8.122;2024-03-25T11:31:33;6.07;;;2.10;;
84883;SDS011;75145;49.188;8.122;2024-03-25T11:34:03;4.68;;;1.92;;
84883;SDS011;75145;49.188;8.122;2024-03-25T11:36:29;3.72;;;1.77;;
84883;SDS011;75145;49.188;8.122;2024-03-25T11:39:14;3.58;;;2.00;;
84883;SDS011;75145;49.188;8.122;2024-03-25T11:41:39;6.35;;;2.10;;
84883;SDS011;75145;49.188;8.122;2024-03-25T11:44:05;4.05;;;2.10;;
84883;SDS011;75145;49.188;8.122;2024-03-25T11:46:33;3.92;;;2.03;;
84883;SDS011;75145;49.188;8.122;2024-03-25T11:49:01;4.85;;;2.00;;
84883;SDS011;75145;49.188;8.122;2024-03-25T11:51:27;3.38;;;1.90;;
84883;SDS011;75145;49.188;8.122;2024-03-25T11:53:52;4.38;;;1.92;;
84883;SDS011;75145;49.188;8.122;2024-03-25T11:56:18;5.32;;;1.90;;
84883;SDS011;75145;49.188;8.122;2024-03-25T11:58:43;4.15;;;2.03;;
84883;SDS011;75145;49.188;8.122;2024-03-25T12:01:10;4.70;;;1.98;;
84883;SDS011;75145;49.188;8.122;2024-03-25T12:03:36;5.07;;;1.80;;
84883;SDS011;75145;49.188;8.122;2024-03-25T12:06:01;4.28;;;2.05;;
84883;SDS011;75145;49.188;8.122;2024-03-25T12:08:27;4.40;;;2.20;;
84883;SDS011;75145;49.188;8.122;2024-03-25T12:10:54;5.40;;;2.00;;
84883;SDS011;75145;49.188;8.122;2024-03-25T12:13:38;5.97;;;2.42;;
84883;SDS011;75145;49.188;8.122;2024-03-25T12:16:07;3.13;;;1.60;;
84883;SDS011;75145;49.188;8.122;2024-03-25T12:18:36;4.78;;;2.17;;
84883;SDS011;75145;49.188;8.122;2024-03-25T12:21:06;4.13;;;1.98;;
84883;SDS011;75145;49.188;8.122;2024-03-25T12:23:32;5.10;;;2.20;;
84883;SDS011;75145;49.188;8.122;2024-03-25T12:26:01;6.78;;;2.35;;
84883;SDS011;75145;49.188;8.122;2024-03-25T12:28:28;3.60;;;1.92;;
84883;SDS011;75145;49.188;8.122;2024-03-25T12:30:54;4.20;;;1.80;;
84883;SDS011;75145;49.188;8.122;2024-03-25T12:33:21;4.85;;;2.30;;
84883;SDS011;75145;49.188;8.122;2024-03-25T12:35:48;2.97;;;1.63;;
84883;SDS011;75145;49.188;8.122;2024-03-25T12:38:21;4.20;;;1.85;;
84883;SDS011;75145;49.188;8.122;2024-03-25T12:41:05;4.70;;;1.88;;
84883;SDS011;75145;49.188;8.122;2024-03-25T12:43:32;4.65;;;1.90;;
84883;SDS011;75145;49.188;8.122;2024-03-25T12:45:58;3.53;;;1.88;;
84883;SDS011;75145;49.188;8.122;2024-03-25T12:48:24;3.47;;;1.88;;
84883;SDS011;75145;49.188;8.122;2024-03-25T12:50:50;3.70;;;1.95;;
84883;SDS011;75145;49.188;8.122;2024-03-25T12:53:16;4.45;;;1.95;;
84883;SDS011;75145;49.188;8.122;2024-03-25T12:55:43;3.40;;;1.63;;
84883;SDS011;75145;49.188;8.122;2024-03-25T12:58:08;5.38;;;1.90;;
84883;SDS011;75145;49.188;8.122;2024-03-25T13:00:33;3.30;;;1.93;;
84883;SDS011;75145;49.188;8.122;2024-03-25T13:02:59;4.80;;;1.77;;
84883;SDS011;75145;49.188;8.122;2024-03-25T13:05:27;4.35;;;1.90;;
84883;SDS011;75145;49.188;8.122;2024-03-25T13:07:53;4.55;;;2.10;;
84883;SDS011;75145;49.188;8.122;2024-03-25T13:10:19;3.67;;;1.90;;
84883;SDS011;75145;49.188;8.122;2024-03-25T13:12:44;5.07;;;1.98;;
84883;SDS011;75145;49.188;8.122;2024-03-25T13:15:10;3.42;;;1.90;;
84883;SDS011;75145;49.188;8.122;2024-03-25T13:18:11;3.47;;;1.80;;
84883;SDS011;75145;49.188;8.122;2024-03-25T13:20:36;5.60;;;1.83;;
84883;SDS011;75145;49.188;8.122;2024-03-25T13:23:02;4.43;;;1.80;;
84883;SDS011;75145;49.188;8.122;2024-03-25T13:25:27;3.58;;;1.70;;
84883;SDS011;75145;49.188;8.122;2024-03-25T13:27:53;5.00;;;1.67;;
84883;SDS011;75145;49.188;8.122;2024-03-25T13:30:18;4.38;;;2.20;;
84883;SDS011;75145;49.188;8.122;2024-03-25T13:32:43;3.67;;;1.80;;
84883;SDS011;75145;49.188;8.122;2024-03-25T13:35:09;4.47;;;1.50;;
84883;SDS011;75145;49.188;8.122;2024-03-25T13:37:34;3.33;;;2.13;;
84883;SDS011;75145;49.188;8.122;2024-03-25T13:39:59;3.87;;;1.73;;
84883;SDS011;75145;49.188;8.122;2024-03-25T13:42:25;2.57;;;1.63;;
84883;SDS011;75145;49.188;8.122;2024-03-25T13:44:50;2.10;;;1.60;;
84883;SDS011;75145;49.188;8.122;2024-03-25T13:47:15;3.10;;;1.73;;
84883;SDS011;75145;49.188;8.122;2024-03-25T13:49:41;3.80;;;1.80;;
84883;SDS011;75145;49.188;8.122;2024-03-25T13:52:06;5.03;;;1.80;;
84883;SDS011;75145;49.188;8.122;2024-03-25T13:54:31;3.37;;;1.50;;
84883;SDS011;75145;49.188;8.122;2024-03-25T13:56:57;3.50;;;1.70;;
84883;SDS011;75145;49.188;8.122;2024-03-25T13:59:22;2.20;;;1.40;;
84883;SDS011;75145;49.188;8.122;2024-03-25T14:01:48;4.00;;;1.75;;
84883;SDS011;75145;49.188;8.122;2024-03-25T14:04:13;4.37;;;1.60;;
84883;SDS011;75145;49.188;8.122;2024-03-25T14:06:39;4.45;;;2.00;;
84883;SDS011;75145;49.188;8.122;2024-03-25T14:09:05;3.10;;;1.75;;
84883;SDS011;75145;49.188;8.122;2024-03-25T14:11:33;4.18;;;1.98;;
84883;SDS011;75145;49.188;8.122;2024-03-25T14:13:59;3.05;;;1.40;;
84883;SDS011;75145;49.188;8.122;2024-03-25T14:16:25;4.22;;;1.60;;
84883;SDS011;75145;49.188;8.122;2024-03-25T14:18:50;2.47;;;1.50;;
84883;SDS011;75145;49.188;8.122;2024-03-25T14:21:16;4.50;;;1.60;;
84883;SDS011;75145;49.188;8.122;2024-03-25T14:23:41;4.40;;;2.00;;
84883;SDS011;75145;49.188;8.122;2024-03-25T14:26:08;3.00;;;1.42;;
84883;SDS011;75145;49.188;8.122;2024-03-25T14:28:34;4.53;;;1.77;;
84883;SDS011;75145;49.188;8.122;2024-03-25T14:30:59;3.20;;;1.83;;
84883;SDS011;75145;49.188;8.122;2024-03-25T14:33:25;5.10;;;1.93;;
84883;SDS011;75145;49.188;8.122;2024-03-25T14:35:50;3.60;;;1.70;;
84883;SDS011;75145;49.188;8.122;2024-03-25T14:38:15;3.90;;;1.43;;
84883;SDS011;75145;49.188;8.122;2024-03-25T14:40:41;4.30;;;1.93;;
84883;SDS011;75145;49.188;8.122;2024-03-25T14:43:06;3.50;;;1.90;;
84883;SDS011;75145;49.188;8.122;2024-03-25T14:45:32;3.80;;;2.00;;